createdAt,value
2022-07-26T00:00:31.067Z,17.8
2022-07-26T00:02:34.536Z,8.7
2022-07-26T00:04:37.867Z,22.2
2022-07-26T00:06:41.252Z,12.4
2022-07-26T00:10:51.144Z,16.1
2022-07-26T00:12:54.555Z,4.4
2022-07-26T00:14:57.882Z,7.6
2022-07-26T00:17:01.157Z,10.4
2022-07-26T00:19:04.800Z,19.7
2022-07-26T00:21:07.988Z,14.7
2022-07-26T00:23:11.319Z,7.7
2022-07-26T00:29:24.528Z,17.5
2022-07-26T00:30:27.741Z,15.9
2022-07-26T00:32:31.149Z,15.8
2022-07-26T00:34:34.528Z,8.5
2022-07-26T00:38:44.304Z,11.6
2022-07-26T00:40:47.687Z,14.5
2022-07-26T00:44:54.458Z,17.9
2022-07-26T00:51:04.615Z,11.9
2022-07-26T00:55:14.383Z,14.7
2022-07-26T00:59:21.172Z,10.7
2022-07-26T01:01:24.623Z,9.2
2022-07-26T01:03:30.316Z,25.5
2022-07-26T01:05:31.280Z,9.3
2022-07-26T01:07:37.693Z,10.9
2022-07-26T01:09:41.071Z,12.8
2022-07-26T01:13:47.753Z,9.8
2022-07-26T01:15:51.182Z,14.4
2022-07-26T01:17:54.500Z,15.5
2022-07-26T01:19:57.871Z,10.3
2022-07-26T01:24:08.076Z,9.8
2022-07-26T01:28:34.575Z,10
2022-07-26T01:38:54.477Z,7.1
2022-07-26T01:40:57.806Z,18.1
2022-07-26T01:45:04.468Z,22.5
2022-07-26T01:47:18.176Z,9.5
2022-07-26T01:49:14.271Z,9.8
2022-07-26T01:55:24.315Z,8.3
2022-07-26T01:57:27.662Z,15.8
2022-07-26T01:59:31.056Z,11.6
2022-07-26T02:03:40.778Z,8.7
2022-07-26T02:05:44.088Z,15.4
2022-07-26T02:09:50.836Z,13.9
2022-07-26T02:11:54.203Z,7.7
2022-07-26T02:18:07.476Z,16.2
2022-07-26T02:22:14.269Z,6.8
2022-07-26T02:23:17.519Z,14.4
2022-07-26T02:25:20.924Z,14.3
2022-07-26T02:27:24.304Z,14.8
2022-07-26T02:29:27.675Z,11.3
2022-07-26T02:31:34.230Z,19.4
2022-07-26T02:35:41.026Z,13.2
2022-07-26T02:37:44.450Z,9.7
2022-07-26T02:39:47.831Z,9.8
2022-07-26T02:41:51.326Z,11.2
2022-07-26T02:43:54.624Z,10.5
2022-07-26T02:46:02.133Z,16
2022-07-26T02:48:04.569Z,12.9
2022-07-26T02:50:07.821Z,14.8
2022-07-26T02:52:11.212Z,19.1
2022-07-26T02:54:14.606Z,12.6
2022-07-26T02:56:18.018Z,14.7
2022-07-26T02:58:21.461Z,11.6
2022-07-26T03:00:27.963Z,12.7
2022-07-26T03:02:31.405Z,7
2022-07-26T03:04:34.741Z,10.7
2022-07-26T03:06:38.150Z,17.3
2022-07-26T03:08:41.769Z,13.7
2022-07-26T03:10:44.992Z,14.5
2022-07-26T03:12:48.385Z,19.3
2022-07-26T03:14:54.998Z,12.6
2022-07-26T03:16:58.289Z,11.5
2022-07-26T03:19:05.606Z,12.7
2022-07-26T03:20:04.940Z,10.4
2022-07-26T03:22:08.381Z,17.3
2022-07-26T03:24:12.012Z,15.8
2022-07-26T03:26:15.202Z,10.2
2022-07-26T03:28:21.714Z,16.1
2022-07-26T03:36:35.360Z,17.9
2022-07-26T03:38:38.749Z,9.6
2022-07-26T03:46:55.509Z,12.4
2022-07-26T03:53:05.782Z,11.7
2022-07-26T03:59:19.118Z,13.7
2022-07-26T04:01:22.584Z,10.2
2022-07-26T04:03:25.982Z,13.9
2022-07-26T04:05:29.406Z,14.9
2022-07-26T04:07:32.819Z,12.4
2022-07-26T04:09:36.245Z,13.3
2022-07-26T04:11:42.769Z,14.9
2022-07-26T04:13:46.188Z,9.5
2022-07-26T04:16:52.916Z,10.9
2022-07-26T04:18:56.174Z,10.2
2022-07-26T04:20:59.627Z,3.9
2022-07-26T04:23:03.048Z,9.1
2022-07-26T04:29:16.383Z,13.5
2022-07-26T04:35:26.691Z,5.1
2022-07-26T04:37:30.112Z,6.9
2022-07-26T04:39:36.621Z,18.1
2022-07-26T04:41:40.058Z,7.2
2022-07-26T04:43:43.510Z,8.6
2022-07-26T04:45:46.994Z,4.3
2022-07-26T04:47:50.408Z,13.4
2022-07-26T04:49:53.746Z,10.4
2022-07-26T04:51:59.413Z,13
2022-07-26T04:54:03.691Z,7.4
2022-07-26T04:58:10.554Z,9.6
2022-07-26T05:00:22.167Z,6.8
2022-07-26T05:02:17.484Z,9
2022-07-26T05:04:20.809Z,6.9
2022-07-26T05:06:24.242Z,3.9
2022-07-26T05:08:30.781Z,10.5
2022-07-26T05:12:37.619Z,8.6
2022-07-26T05:15:01.672Z,11.9
2022-07-26T05:17:09.090Z,12.4
2022-07-26T05:23:18.421Z,4.8
2022-07-26T05:25:21.944Z,7.1
2022-07-26T05:27:25.251Z,7.9
2022-07-26T05:29:28.681Z,5.4
2022-07-26T05:33:35.491Z,5.3
2022-07-26T05:37:45.412Z,5.8
2022-07-26T05:39:48.862Z,7.5
2022-07-26T05:41:52.262Z,7.5
2022-07-26T05:43:55.703Z,11.1
2022-07-26T05:45:59.179Z,4.7
2022-07-26T05:48:02.495Z,2.2
2022-07-26T05:50:09.035Z,2.9
2022-07-26T05:52:12.431Z,7.5
2022-07-26T05:54:15.823Z,5.3
2022-07-26T05:56:19.212Z,9.5
2022-07-26T05:58:22.613Z,3.5
2022-07-26T06:00:26.035Z,3.6
2022-07-26T06:05:22.377Z,8.8
2022-07-26T06:07:20.153Z,1.8
2022-07-26T06:09:45.997Z,2.9
2022-07-26T06:11:49.410Z,4.8
2022-07-26T06:13:56.571Z,2.9
2022-07-26T06:15:56.203Z,4.5
2022-07-26T06:18:02.693Z,1.4
2022-07-26T06:20:06.133Z,4.2
2022-07-26T06:22:09.518Z,4.9
2022-07-26T06:24:13.044Z,1.5
2022-07-26T06:26:16.317Z,3.3
2022-07-26T06:28:19.745Z,2.3
2022-07-26T06:30:23.123Z,1.2
2022-07-26T06:32:29.655Z,7.4
2022-07-26T06:34:33.064Z,1.6
2022-07-26T06:36:36.591Z,3
2022-07-26T06:40:43.277Z,3.3
2022-07-26T06:44:50.139Z,4.4
2022-07-26T06:46:56.674Z,4.3
2022-07-26T06:49:00.180Z,2.4
2022-07-26T06:51:03.492Z,2.3
2022-07-26T06:53:06.927Z,3.6
2022-07-26T06:57:13.810Z,3.4
2022-07-26T06:59:17.207Z,1.9
2022-07-26T07:01:58.139Z,3.3
2022-07-26T07:03:27.217Z,3.7
2022-07-26T07:05:31.207Z,2.3
2022-07-26T07:06:33.908Z,3.4
2022-07-26T07:08:37.337Z,2
2022-07-26T07:10:40.755Z,6.3
2022-07-26T07:12:44.201Z,5.8
2022-07-26T07:14:50.753Z,2.6
2022-07-26T07:16:54.203Z,2.1
2022-07-26T07:23:05.994Z,6.2
2022-07-26T07:27:12.789Z,5.7
2022-07-26T07:29:19.329Z,3.4
2022-07-26T07:31:30.135Z,3.1
2022-07-26T07:33:26.198Z,0.8
2022-07-26T07:37:52.850Z,1.2
2022-07-26T07:41:39.954Z,4.2
2022-07-26T07:43:46.516Z,2.8
2022-07-26T07:45:49.962Z,2.1
2022-07-26T07:47:53.472Z,5.1
2022-07-26T07:49:56.859Z,2.4
2022-07-26T07:52:00.313Z,2.9
2022-07-26T07:54:05.719Z,2.2
2022-07-26T07:56:07.209Z,4.1
2022-07-26T07:58:13.726Z,4.8
2022-07-26T08:00:17.247Z,2.9
2022-07-26T08:02:20.658Z,2.7
2022-07-26T08:03:23.938Z,1.7
2022-07-26T08:05:27.410Z,3.9
2022-07-26T08:09:34.270Z,4.6
2022-07-26T08:13:47.765Z,0.8
2022-07-26T08:19:59.799Z,4.8
2022-07-26T08:21:58.069Z,3.5
2022-07-26T08:24:01.508Z,6.8
2022-07-26T08:26:08.053Z,6.6
2022-07-26T08:28:30.806Z,2.4
2022-07-26T08:30:14.963Z,3.6
2022-07-26T08:32:18.390Z,5.4
2022-07-26T08:34:21.821Z,1.4
2022-07-26T08:36:31.910Z,1
2022-07-26T08:38:28.732Z,1.3
2022-07-26T08:40:35.294Z,1.9
2022-07-26T08:42:38.760Z,2.8
2022-07-26T08:44:42.187Z,2.9
2022-07-26T08:46:45.648Z,3.4
2022-07-26T08:48:49.197Z,2.2
2022-07-26T08:52:55.934Z,2.5
2022-07-26T08:55:02.622Z,6.4
2022-07-26T08:57:05.955Z,1
2022-07-26T08:59:10.231Z,1.8
2022-07-26T09:03:34.788Z,5.6
2022-07-26T09:07:44.558Z,0.3
2022-07-26T09:13:54.758Z,2.4
2022-07-26T09:20:04.972Z,4.3
2022-07-26T09:24:14.842Z,2.6
2022-07-26T09:26:18.206Z,1.1
2022-07-26T09:28:21.587Z,4.1
2022-07-26T09:30:24.975Z,7.2
2022-07-26T09:32:28.367Z,1.2
2022-07-26T09:34:31.750Z,2
2022-07-26T09:36:38.231Z,9.4
2022-07-26T09:38:41.618Z,2.5
2022-07-26T09:40:50.690Z,5
2022-07-26T09:42:48.246Z,6
2022-07-26T09:44:51.613Z,2.7
2022-07-26T09:46:54.903Z,2.6
2022-07-26T09:49:10.982Z,2.2
2022-07-26T09:51:04.601Z,1.5
2022-07-26T09:53:07.846Z,1.6
2022-07-26T09:55:11.088Z,2.8
2022-07-26T09:56:14.348Z,1.9
2022-07-26T10:02:24.450Z,2.1
2022-07-26T10:04:30.889Z,4.2
2022-07-26T10:06:34.207Z,1.5
2022-07-26T10:12:44.325Z,3.4
2022-07-26T10:14:47.734Z,3.9
2022-07-26T10:16:51.064Z,0.8
2022-07-26T10:23:04.343Z,0.9
2022-07-26T10:27:11.120Z,0.4
2022-07-26T10:29:14.486Z,1.6
2022-07-26T10:31:17.902Z,1.8
2022-07-26T10:33:24.389Z,0.6
2022-07-26T10:35:27.713Z,0.3
2022-07-26T10:37:31.073Z,2.4
2022-07-26T10:39:34.422Z,4.2
2022-07-26T10:41:37.799Z,1.9
2022-07-26T10:43:41.989Z,6.4
2022-07-26T10:45:44.408Z,2.3
2022-07-26T10:47:50.788Z,1.9
2022-07-26T10:49:54.042Z,3.5
2022-07-26T10:51:57.284Z,1.8
2022-07-26T10:55:03.633Z,0.5
2022-07-26T10:59:10.073Z,1.2
2022-07-26T11:03:19.680Z,3.2
2022-07-26T11:07:26.056Z,0.3
2022-07-26T11:09:29.382Z,3.6
2022-07-26T11:11:32.685Z,7.8
2022-07-26T11:17:45.373Z,3.2
2022-07-26T11:19:48.567Z,5.9
2022-07-26T11:23:55.001Z,4.5
2022-07-26T11:30:07.895Z,4.2
2022-07-26T11:34:14.798Z,4.2
2022-07-26T11:36:17.544Z,2.8
2022-07-26T11:38:20.760Z,5.7
2022-07-26T11:40:23.969Z,6.5
2022-07-26T11:42:27.154Z,2
2022-07-26T11:44:33.414Z,3.1
2022-07-26T11:46:36.594Z,0.6
2022-07-26T11:48:39.823Z,2.4
2022-07-26T11:50:00.039Z,3
2022-07-26T11:55:52.369Z,1.9
2022-07-26T11:57:58.542Z,2.1
2022-07-26T12:00:01.885Z,4
2022-07-26T12:02:04.918Z,1.1
2022-07-26T12:06:11.208Z,5.6
2022-07-26T12:08:14.379Z,4.2
2022-07-26T12:10:17.570Z,4.5
2022-07-26T12:12:23.758Z,9.8
2022-07-26T12:14:26.918Z,1.9
2022-07-26T12:16:30.173Z,4.1
2022-07-26T12:18:33.278Z,2.3
2022-07-26T12:20:36.457Z,6.1
2022-07-26T12:22:39.632Z,3.7
2022-07-26T12:26:49.126Z,9.7
2022-07-26T12:28:52.203Z,6.6
2022-07-26T12:30:55.402Z,5
2022-07-26T12:32:58.571Z,8.6
2022-07-26T12:35:01.757Z,3.1
2022-07-26T12:37:04.936Z,6.6
2022-07-26T12:39:08.110Z,5.4
2022-07-26T12:41:14.368Z,5.9
2022-07-26T12:45:20.669Z,6.8
2022-07-26T12:47:38.945Z,5
2022-07-26T12:55:54.965Z,6.6
2022-07-26T12:57:57.986Z,10.3
2022-07-26T13:00:01.209Z,5.9
2022-07-26T13:02:04.504Z,4.8
2022-07-26T13:04:08.005Z,3.7
2022-07-26T13:08:17.091Z,1.9
2022-07-26T13:10:34.647Z,2.5
2022-07-26T13:12:23.465Z,5.4
2022-07-26T13:14:26.674Z,6.6
2022-07-26T13:16:29.897Z,4.9
2022-07-26T13:18:33.095Z,4
2022-07-26T13:22:43.928Z,4.4
2022-07-26T13:24:47.116Z,6.9
2022-07-26T13:26:50.273Z,6
2022-07-26T13:28:53.459Z,5
2022-07-26T13:30:56.642Z,3.8
2022-07-26T13:32:59.798Z,4.8
2022-07-26T13:35:02.980Z,2.3
2022-07-26T13:41:15.501Z,3.1
2022-07-26T13:42:18.601Z,3.8
2022-07-26T13:46:26.411Z,7.6
2022-07-26T13:48:28.336Z,4.7
2022-07-26T13:50:34.395Z,4.6
2022-07-26T13:52:37.594Z,6.6
2022-07-26T13:54:40.787Z,3.9
2022-07-26T13:56:44.001Z,13.5
2022-07-26T13:58:47.182Z,2.6
2022-07-26T14:00:50.484Z,11.6
2022-07-26T14:02:53.755Z,6.3
2022-07-26T14:04:59.871Z,3.9
2022-07-26T14:07:03.014Z,5.8
2022-07-26T14:09:10.381Z,7.5
2022-07-26T14:11:09.435Z,7.6
2022-07-26T14:13:12.604Z,3.1
2022-07-26T14:15:21.411Z,4.4
2022-07-26T14:17:18.942Z,3.7
2022-07-26T14:19:25.191Z,4.4
2022-07-26T14:25:34.657Z,2.8
2022-07-26T14:27:37.843Z,6.5
2022-07-26T14:29:41.010Z,7.4
2022-07-26T14:31:44.188Z,3.1
2022-07-26T14:33:50.306Z,4.1
2022-07-26T14:35:53.590Z,2.6
2022-07-26T14:37:56.597Z,4.6
2022-07-26T14:38:59.689Z,2.7
2022-07-26T14:43:05.986Z,1.6
2022-07-26T14:45:09.150Z,10.5
2022-07-26T14:47:15.292Z,1.8
2022-07-26T14:53:24.760Z,3.9
2022-07-26T14:59:34.186Z,2.1
2022-07-26T15:03:43.502Z,2.4
2022-07-26T15:11:56.084Z,5.5
2022-07-26T15:16:05.542Z,6.9
2022-07-26T15:18:08.595Z,3
2022-07-26T15:20:11.773Z,1
2022-07-26T15:22:14.897Z,1.7
2022-07-26T15:24:18.061Z,2.2
2022-07-26T15:28:24.373Z,3.6
2022-07-26T15:32:33.740Z,2.6
2022-07-26T15:35:39.975Z,1.3
2022-07-26T15:37:43.123Z,1.7
2022-07-26T15:39:46.293Z,3.1
2022-07-26T15:45:58.957Z,1.6
2022-07-26T15:50:05.200Z,2.6
2022-07-26T15:56:14.727Z,6.4
2022-07-26T16:00:24.103Z,5.4
2022-07-26T16:02:27.415Z,5.2
2022-07-26T16:06:33.671Z,5.4
2022-07-26T16:08:52.432Z,9.6
2022-07-26T16:10:40.028Z,2.1
2022-07-26T16:12:46.227Z,7.2
2022-07-26T16:14:49.423Z,3.6
2022-07-26T16:18:55.836Z,3.7
2022-07-26T16:20:58.981Z,0.7
2022-07-26T16:25:05.413Z,3.3
2022-07-26T16:27:11.724Z,2.3
2022-07-26T16:37:42.722Z,0.8
2022-07-26T16:39:48.980Z,1
2022-07-26T16:41:52.172Z,2.2
2022-07-26T16:43:55.375Z,0.6
2022-07-26T16:45:58.567Z,2.3
2022-07-26T16:50:04.972Z,4.9
2022-07-26T16:52:08.194Z,1.4
2022-07-26T16:54:14.390Z,5.2
2022-07-26T16:56:17.648Z,3.1
2022-07-26T17:02:27.320Z,2.6
2022-07-26T17:04:30.506Z,1.3
2022-07-26T17:06:33.830Z,2.1
2022-07-26T17:08:40.274Z,4.4
2022-07-26T17:10:43.494Z,2.5
2022-07-26T17:14:50.187Z,2.4
2022-07-26T17:16:54.245Z,1.1
2022-07-26T17:18:57.504Z,3.4
2022-07-26T17:23:07.311Z,1.4
2022-07-26T17:25:10.624Z,5
2022-07-26T17:30:20.499Z,3.2
2022-07-26T17:32:23.844Z,8.1
2022-07-26T17:34:27.193Z,0.6
2022-07-26T17:36:33.626Z,2.1
2022-07-26T17:38:36.979Z,0.8
2022-07-26T17:40:40.233Z,5.8
2022-07-26T17:42:43.564Z,2.3
2022-07-26T17:44:46.930Z,2.9
2022-07-26T17:46:50.360Z,1.9
2022-07-26T17:48:53.683Z,2.3
2022-07-26T17:51:00.160Z,1.1
2022-07-26T17:53:03.510Z,2.8
2022-07-26T17:55:06.862Z,0.7
2022-07-26T17:57:10.275Z,3.1
2022-07-26T17:59:14.186Z,3.5
2022-07-26T18:01:17.191Z,1.1
2022-07-26T18:03:20.411Z,1.6
2022-07-26T18:05:33.294Z,1.5
2022-07-26T18:07:30.278Z,1.5
2022-07-26T18:09:33.672Z,6.5
2022-07-26T18:11:37.094Z,1.1
2022-07-26T18:13:40.420Z,1.5
2022-07-26T18:15:43.789Z,4.4
2022-07-26T18:17:47.115Z,2
2022-07-26T18:19:53.619Z,2.3
2022-07-26T18:21:56.994Z,1.8
2022-07-26T18:24:16.348Z,1
2022-07-26T18:27:06.959Z,2.3
2022-07-26T18:29:10.596Z,1.7
2022-07-26T18:31:13.748Z,1.8
2022-07-26T18:33:20.185Z,5.6
2022-07-26T18:35:23.595Z,3.7
2022-07-26T18:37:26.969Z,1.6
2022-07-26T18:39:30.500Z,6.7
2022-07-26T18:41:34.294Z,3.2
2022-07-26T18:43:37.153Z,3.2
2022-07-26T18:45:40.557Z,4
2022-07-26T18:47:46.997Z,1.1
2022-07-26T18:49:50.415Z,3.3
2022-07-26T18:51:53.814Z,10
2022-07-26T18:53:57.153Z,1.2
2022-07-26T18:56:00.710Z,2.2
2022-07-26T18:58:06.964Z,3.2
2022-07-26T19:00:07.333Z,3.1
2022-07-26T19:02:13.875Z,5.9
2022-07-26T19:04:17.328Z,1.3
2022-07-26T19:10:27.507Z,1.2
2022-07-26T19:21:52.562Z,2.1
2022-07-26T19:23:55.991Z,2.3
2022-07-26T19:25:59.606Z,1.6
2022-07-26T19:28:17.058Z,1.8
2022-07-26T19:30:09.398Z,1.2
2022-07-26T19:32:12.907Z,5.6
2022-07-26T19:34:16.287Z,5.5
2022-07-26T19:36:25.599Z,7.4
2022-07-26T19:38:23.174Z,2.4
2022-07-26T19:40:26.623Z,1.3
2022-07-26T19:42:30.246Z,1.8
2022-07-26T19:44:36.652Z,1.8
2022-07-26T19:46:40.131Z,2.8
2022-07-26T19:48:43.638Z,3.1
2022-07-26T19:50:46.964Z,1.3
2022-07-26T19:52:50.544Z,1
2022-07-26T19:54:53.866Z,1.7
2022-07-26T19:56:57.350Z,2.1
2022-07-26T19:59:03.885Z,0.8
2022-07-26T20:01:07.439Z,9.2
2022-07-26T20:03:10.817Z,1.2
2022-07-26T20:05:14.241Z,2.1
2022-07-26T20:07:17.724Z,2.5
2022-07-26T20:09:21.163Z,0.9
2022-07-26T20:11:24.660Z,0.7
2022-07-26T20:13:31.186Z,0.9
2022-07-26T20:15:34.640Z,5.1
2022-07-26T20:17:38.100Z,2.9
2022-07-26T20:20:02.082Z,3.9
2022-07-26T20:22:05.545Z,2.9
2022-07-26T20:28:18.953Z,8.1
2022-07-26T20:30:22.397Z,6.5
2022-07-26T20:32:25.853Z,3
2022-07-26T20:34:29.366Z,0.8
2022-07-26T20:36:32.736Z,2.4
2022-07-26T20:38:36.157Z,0.8
2022-07-26T20:40:42.727Z,4.2
2022-07-26T20:44:49.600Z,2
2022-07-26T20:46:54.752Z,1.9
2022-07-26T20:50:59.943Z,1.9
2022-07-26T20:53:03.382Z,4.2
2022-07-26T20:55:09.971Z,3
2022-07-26T20:57:13.391Z,2.7
2022-07-26T21:01:20.385Z,2.6
2022-07-26T21:07:53.552Z,1.1
2022-07-26T21:09:37.175Z,2.1
2022-07-26T21:11:40.622Z,2.2
2022-07-26T21:13:44.048Z,3.3
2022-07-26T21:14:47.324Z,1.2
2022-07-26T21:16:50.853Z,3
2022-07-26T21:18:54.261Z,4.8
2022-07-26T21:20:57.709Z,1
2022-07-26T21:23:17.198Z,2.7
2022-07-26T21:25:07.704Z,2.2
2022-07-26T21:27:11.288Z,2.3
2022-07-26T21:31:18.114Z,1.1
2022-07-26T21:33:21.589Z,5.4
2022-07-26T21:35:25.056Z,1.7
2022-07-26T21:37:31.615Z,4.3
2022-07-26T21:39:35.103Z,5.8
2022-07-26T21:41:38.549Z,1.7
2022-07-26T21:43:42.050Z,2.2
2022-07-26T21:45:45.559Z,4.7
2022-07-26T21:47:49.011Z,4.9
2022-07-26T21:49:52.476Z,2.7
2022-07-26T21:51:59.032Z,4.4
2022-07-26T21:54:02.521Z,2.9
2022-07-26T22:00:12.957Z,1
2022-07-26T22:04:19.903Z,3.2
2022-07-26T22:06:26.478Z,3.5
2022-07-26T22:08:30.033Z,1.4
2022-07-26T22:10:33.461Z,1.6
2022-07-26T22:11:36.747Z,5
2022-07-26T22:13:40.267Z,8.3
2022-07-26T22:17:47.350Z,2.2
2022-07-26T22:21:58.400Z,4.3
2022-07-26T22:24:00.815Z,0.6
2022-07-26T22:26:04.387Z,2
2022-07-26T22:28:07.798Z,0.9
2022-07-26T22:30:11.310Z,2.4
2022-07-26T22:32:14.815Z,2
2022-07-26T22:34:21.400Z,2.2
2022-07-26T22:36:24.871Z,1.8
2022-07-26T22:38:28.400Z,3.6
2022-07-26T22:40:31.887Z,1.5
2022-07-26T22:42:35.396Z,3.3
2022-07-26T22:44:38.891Z,5.8
2022-07-26T22:46:42.417Z,2.8
2022-07-26T22:50:52.495Z,1.9
2022-07-26T23:05:20.123Z,1.4
2022-07-26T23:07:23.706Z,11
2022-07-26T23:08:46.397Z,4.7
2022-07-26T23:10:30.377Z,0.6
2022-07-26T23:12:33.858Z,2.6
2022-07-26T23:16:44.032Z,1.6
2022-07-26T23:27:01.443Z,3.5
2022-07-26T23:29:04.924Z,3
2022-07-26T23:31:11.906Z,2.5
2022-07-26T23:33:15.000Z,1.6
2022-07-26T23:35:18.498Z,2.4
2022-07-26T23:37:21.961Z,3.5
2022-07-26T23:43:32.492Z,4.4
2022-07-26T23:49:46.130Z,4.8
2022-07-26T23:51:49.636Z,1.6
